createdAt,value
2018-02-13T00:01:22.387Z,-1.00
2018-02-13T00:03:48.419Z,-1.01
2018-02-13T00:06:14.421Z,-0.96
2018-02-13T00:08:40.428Z,-0.94
2018-02-13T00:11:06.507Z,-0.95
2018-02-13T00:13:32.517Z,-1.05
2018-02-13T00:15:59.013Z,-1.12
2018-02-13T00:18:25.004Z,-1.04
2018-02-13T00:20:50.985Z,-1.09
2018-02-13T00:23:17.033Z,-1.09
2018-02-13T00:25:43.048Z,-1.15
2018-02-13T00:28:09.441Z,-1.21
2018-02-13T00:30:35.500Z,-1.30
2018-02-13T00:33:01.491Z,-1.33
2018-02-13T00:35:27.457Z,-1.36
2018-02-13T00:37:53.419Z,-1.42
2018-02-13T00:40:19.504Z,-1.43
2018-02-13T00:42:45.519Z,-1.42
2018-02-13T00:45:11.922Z,-1.54
2018-02-13T00:47:37.913Z,-1.54
2018-02-13T00:50:03.988Z,-1.56
2018-02-13T00:52:29.985Z,-1.70
2018-02-13T00:54:55.965Z,-1.67
2018-02-13T00:57:22.034Z,-1.68
2018-02-13T00:59:48.068Z,-1.63
2018-02-13T01:02:14.125Z,-1.60
2018-02-13T01:04:40.159Z,-1.52
2018-02-13T01:07:06.159Z,-1.55
2018-02-13T01:09:32.485Z,-1.38
2018-02-13T01:11:58.512Z,-1.55
2018-02-13T01:14:24.553Z,-1.65
2018-02-13T01:16:50.588Z,-1.81
2018-02-13T01:19:16.579Z,-1.93
2018-02-13T01:21:42.521Z,-1.91
2018-02-13T01:24:08.513Z,-1.95
2018-02-13T01:26:34.880Z,-1.98
2018-02-13T01:29:00.893Z,-1.96
2018-02-13T01:31:26.856Z,-2.09
2018-02-13T01:33:52.877Z,-2.08
2018-02-13T01:36:18.893Z,-2.11
2018-02-13T01:38:44.905Z,-2.16
2018-02-13T01:41:10.890Z,-2.17
2018-02-13T01:43:37.363Z,-2.08
2018-02-13T01:46:03.373Z,-1.88
2018-02-13T01:48:29.349Z,-1.92
2018-02-13T01:50:55.334Z,-1.96
2018-02-13T01:53:21.553Z,-2.02
2018-02-13T01:55:47.545Z,-2.07
2018-02-13T01:58:13.585Z,-2.19
2018-02-13T02:00:39.633Z,-2.50
2018-02-13T02:03:05.592Z,-2.53
2018-02-13T02:05:31.937Z,-2.56
2018-02-13T02:07:57.907Z,-2.51
2018-02-13T02:10:23.915Z,-2.44
2018-02-13T02:12:49.997Z,-2.37
2018-02-13T02:15:16.013Z,-2.43
2018-02-13T02:17:42.029Z,-2.34
2018-02-13T02:20:08.087Z,-2.20
2018-02-13T02:22:34.433Z,-2.17
2018-02-13T02:25:00.479Z,-2.04
2018-02-13T02:27:26.482Z,-1.97
2018-02-13T02:29:52.521Z,-1.88
2018-02-13T02:32:18.473Z,-1.74
2018-02-13T02:34:44.529Z,-1.58
2018-02-13T02:37:10.520Z,-1.59
2018-02-13T02:39:36.964Z,-1.52
2018-02-13T02:42:03.005Z,-1.48
2018-02-13T02:44:29.013Z,-1.48
2018-02-13T02:46:55.031Z,-1.51
2018-02-13T02:49:21.076Z,-1.49
2018-02-13T02:51:47.116Z,-1.50
2018-02-13T02:54:13.091Z,-1.53
2018-02-13T02:56:39.453Z,-1.52
2018-02-13T02:59:05.443Z,-1.57
2018-02-13T03:01:31.440Z,-1.54
2018-02-13T03:03:57.610Z,-1.96
2018-02-13T03:06:23.605Z,-1.59
2018-02-13T03:08:49.619Z,-1.61
2018-02-13T03:11:15.623Z,-1.56
2018-02-13T03:13:41.640Z,-1.71
2018-02-13T03:16:07.639Z,-1.67
2018-02-13T03:18:33.986Z,-1.80
2018-02-13T03:20:59.961Z,-1.74
2018-02-13T03:23:25.941Z,-1.80
2018-02-13T03:25:52.002Z,-2.02
2018-02-13T03:28:18.049Z,-2.02
2018-02-13T03:30:44.018Z,-1.93
2018-02-13T03:33:09.952Z,-1.86
2018-02-13T03:35:35.976Z,-2.00
2018-02-13T03:38:01.939Z,-1.91
2018-02-13T03:40:27.971Z,-1.90
2018-02-13T03:42:53.953Z,-2.03
2018-02-13T03:45:19.950Z,-2.04
2018-02-13T03:47:45.953Z,-2.05
2018-02-13T03:50:11.983Z,-1.89
2018-02-13T03:52:37.957Z,-1.85
2018-02-13T03:55:03.969Z,-1.95
2018-02-13T03:57:29.969Z,-1.72
2018-02-13T03:59:55.979Z,-1.70
2018-02-13T04:02:22.017Z,-1.68
2018-02-13T04:04:48.076Z,-1.99
2018-02-13T04:07:14.081Z,-2.03
2018-02-13T04:09:40.091Z,-1.86
2018-02-13T04:12:06.052Z,-2.14
2018-02-13T04:14:32.653Z,-2.20
2018-02-13T04:16:58.699Z,-2.15
2018-02-13T04:19:24.681Z,-2.01
2018-02-13T04:21:50.652Z,-1.97
2018-02-13T04:24:16.680Z,-1.89
2018-02-13T04:26:42.689Z,-1.85
2018-02-13T04:29:08.727Z,-1.68
2018-02-13T04:31:35.143Z,-1.70
2018-02-13T04:34:01.136Z,-1.70
2018-02-13T04:36:27.122Z,-1.70
2018-02-13T04:38:53.181Z,-1.77
2018-02-13T04:41:19.164Z,-1.80
2018-02-13T04:43:45.170Z,-1.74
2018-02-13T04:46:11.137Z,-1.75
2018-02-13T04:48:37.453Z,-1.66
2018-02-13T04:51:03.497Z,-1.57
2018-02-13T04:53:29.473Z,-1.69
2018-02-13T04:55:55.479Z,-1.75
2018-02-13T04:58:21.472Z,-1.69
2018-02-13T05:00:47.564Z,-1.72
2018-02-13T05:03:13.569Z,-1.76
2018-02-13T05:05:39.580Z,-1.78
2018-02-13T05:08:05.578Z,-1.80
2018-02-13T05:10:31.952Z,-1.80
2018-02-13T05:12:57.973Z,-1.79
2018-02-13T05:15:23.990Z,-1.81
2018-02-13T05:17:49.996Z,-1.94
2018-02-13T05:20:15.992Z,-1.77
2018-02-13T05:22:41.966Z,-1.86
2018-02-13T05:25:07.942Z,-1.72
2018-02-13T05:27:33.940Z,-1.82
2018-02-13T05:29:59.960Z,-1.71
2018-02-13T05:32:26.019Z,-1.75
2018-02-13T05:34:52.059Z,-1.75
2018-02-13T05:37:18.108Z,-1.70
2018-02-13T05:39:44.453Z,-1.78
2018-02-13T05:42:10.488Z,-1.74
2018-02-13T05:44:36.519Z,-1.85
2018-02-13T05:47:02.491Z,-1.91
2018-02-13T05:49:28.481Z,-1.89
2018-02-13T05:51:54.501Z,-1.90
2018-02-13T05:54:20.544Z,-1.89
2018-02-13T05:56:46.940Z,-1.77
2018-02-13T05:59:12.953Z,-1.79
2018-02-13T06:01:38.896Z,-1.80
2018-02-13T06:04:04.885Z,-1.67
2018-02-13T06:06:30.909Z,-1.70
2018-02-13T06:08:56.979Z,-1.72
2018-02-13T06:11:22.946Z,-1.79
2018-02-13T06:13:49.329Z,-1.85
2018-02-13T06:16:15.316Z,-1.91
2018-02-13T06:18:41.313Z,-1.95
2018-02-13T06:21:07.349Z,-1.90
2018-02-13T06:23:33.336Z,-1.70
2018-02-13T06:25:59.356Z,-1.78
2018-02-13T06:28:25.373Z,-1.69
2018-02-13T06:30:51.729Z,-1.67
2018-02-13T06:33:17.752Z,-1.54
2018-02-13T06:35:43.735Z,-1.66
2018-02-13T06:38:09.716Z,-1.61
2018-02-13T06:40:35.753Z,-1.61
2018-02-13T06:43:01.801Z,-1.56
2018-02-13T06:45:27.828Z,-1.67
2018-02-13T06:47:54.156Z,-1.65
2018-02-13T06:50:20.104Z,-1.60
2018-02-13T06:52:46.200Z,-1.59
2018-02-13T06:55:12.205Z,-1.56
2018-02-13T06:57:38.152Z,-1.55
2018-02-13T07:00:04.260Z,-1.63
2018-02-13T07:02:30.236Z,-1.71
2018-02-13T07:04:56.253Z,-1.79
2018-02-13T07:07:22.317Z,-1.82
2018-02-13T07:09:48.616Z,-1.77
2018-02-13T07:12:14.660Z,-1.72
2018-02-13T07:14:40.657Z,-1.82
2018-02-13T07:17:06.748Z,-1.86
2018-02-13T07:19:32.737Z,-1.91
2018-02-13T07:21:58.751Z,-2.11
2018-02-13T07:24:24.820Z,-2.06
2018-02-13T07:26:50.870Z,-2.10
2018-02-13T07:29:16.902Z,-1.99
2018-02-13T07:31:43.209Z,-1.81
2018-02-13T07:34:09.224Z,-1.77
2018-02-13T07:36:35.184Z,-1.80
2018-02-13T07:39:01.214Z,-1.76
2018-02-13T07:41:27.204Z,-2.11
2018-02-13T07:43:53.272Z,-1.99
2018-02-13T07:46:19.603Z,-1.88
2018-02-13T07:48:46.038Z,-1.79
2018-02-13T07:51:12.034Z,-1.74
2018-02-13T07:53:38.013Z,-1.75
2018-02-13T07:56:04.021Z,-1.76
2018-02-13T07:58:29.992Z,-1.73
2018-02-13T08:00:56.388Z,-1.65
2018-02-13T08:03:22.429Z,-1.66
2018-02-13T08:05:48.373Z,-1.66
2018-02-13T08:08:14.374Z,-2.02
2018-02-13T08:10:40.436Z,-1.85
2018-02-13T08:13:06.449Z,-1.72
2018-02-13T08:15:32.493Z,-1.70
2018-02-13T08:17:58.505Z,-1.75
2018-02-13T08:20:24.516Z,-1.52
2018-02-13T08:22:50.522Z,-1.42
2018-02-13T08:25:16.564Z,-1.66
2018-02-13T08:27:42.587Z,-1.96
2018-02-13T08:30:08.729Z,-1.97
2018-02-13T08:32:34.721Z,-2.31
2018-02-13T08:35:00.724Z,-2.25
2018-02-13T08:37:26.722Z,-2.04
2018-02-13T08:39:52.768Z,-1.87
2018-02-13T08:42:18.824Z,-1.71
2018-02-13T08:44:44.869Z,-1.51
2018-02-13T08:47:10.908Z,-1.40
2018-02-13T08:49:36.960Z,-1.42
2018-02-13T08:52:03.011Z,-1.31
2018-02-13T08:54:29.144Z,-1.33
2018-02-13T08:56:55.145Z,-1.39
2018-02-13T08:59:21.165Z,-1.32
2018-02-13T09:01:47.157Z,-1.53
2018-02-13T09:04:13.244Z,-1.35
2018-02-13T09:06:39.222Z,-1.53
2018-02-13T09:09:05.239Z,-1.50
2018-02-13T09:11:31.284Z,-1.39
2018-02-13T09:13:57.235Z,-1.32
2018-02-13T09:16:23.250Z,-1.55
2018-02-13T09:18:49.249Z,-1.40
2018-02-13T09:21:15.291Z,-1.27
2018-02-13T09:23:41.327Z,-1.35
2018-02-13T09:26:07.336Z,-1.24
2018-02-13T09:28:33.344Z,-1.12
2018-02-13T09:30:59.333Z,-1.24
2018-02-13T09:33:25.452Z,-1.39
2018-02-13T09:35:51.435Z,-1.16
2018-02-13T09:38:17.446Z,-1.00
2018-02-13T09:40:43.492Z,-0.91
2018-02-13T09:43:09.460Z,-0.83
2018-02-13T09:45:35.469Z,-1.14
2018-02-13T09:48:01.452Z,-1.04
2018-02-13T09:50:27.449Z,-1.11
2018-02-13T09:52:53.457Z,-1.39
2018-02-13T09:55:19.453Z,-1.29
2018-02-13T09:57:45.491Z,-1.32
2018-02-13T10:00:11.553Z,-1.01
2018-02-13T10:02:37.581Z,-0.81
2018-02-13T10:05:03.592Z,-0.69
2018-02-13T10:07:29.596Z,-0.52
2018-02-13T10:09:55.610Z,-0.49
2018-02-13T10:12:21.593Z,-0.37
2018-02-13T10:14:47.650Z,-0.33
2018-02-13T10:17:13.693Z,-0.45
2018-02-13T10:19:39.736Z,-0.13
2018-02-13T10:22:05.725Z,-0.03
2018-02-13T10:24:31.737Z,-0.34
2018-02-13T10:26:57.764Z,-0.08
2018-02-13T10:29:23.825Z,-0.04
2018-02-13T10:31:49.912Z,-0.18
2018-02-13T10:34:15.933Z,-0.38
2018-02-13T10:36:41.964Z,-0.33
2018-02-13T10:39:07.964Z,-0.07
2018-02-13T10:41:33.994Z,-0.03
2018-02-13T10:44:00.027Z,-0.27
2018-02-13T10:46:26.073Z,-0.09
2018-02-13T10:48:52.018Z,-0.17
2018-02-13T10:51:18.038Z,-0.40
2018-02-13T10:53:44.022Z,-0.73
2018-02-13T10:56:10.061Z,-0.74
2018-02-13T10:58:36.080Z,-0.38
2018-02-13T11:01:08.169Z,-0.17
2018-02-13T11:03:34.253Z,-0.40
2018-02-13T11:06:00.248Z,-0.21
2018-02-13T11:08:26.272Z,-0.24
2018-02-13T11:10:52.280Z,0.09
2018-02-13T11:13:18.310Z,-0.05
2018-02-13T11:15:44.307Z,0.11
2018-02-13T11:18:10.310Z,-0.09
2018-02-13T11:20:36.349Z,0.12
2018-02-13T11:23:02.320Z,0.68
2018-02-13T11:25:28.345Z,0.94
2018-02-13T11:27:54.333Z,0.98
2018-02-13T11:30:20.525Z,1.01
2018-02-13T11:32:46.541Z,1.02
2018-02-13T11:35:12.551Z,1.02
2018-02-13T11:37:38.525Z,1.14
2018-02-13T11:40:04.549Z,1.24
2018-02-13T11:42:30.641Z,1.30
2018-02-13T11:44:56.641Z,1.48
2018-02-13T11:47:22.677Z,1.21
2018-02-13T11:49:48.733Z,1.13
2018-02-13T11:52:14.837Z,1.40
2018-02-13T11:54:40.837Z,1.54
2018-02-13T11:57:06.937Z,1.50
2018-02-13T11:59:33.089Z,1.02
2018-02-13T12:01:59.125Z,0.97
2018-02-13T12:04:25.168Z,1.38
2018-02-13T12:06:51.133Z,0.95
2018-02-13T12:09:17.169Z,0.84
2018-02-13T12:11:43.197Z,0.64
2018-02-13T12:14:09.208Z,0.76
2018-02-13T12:16:35.229Z,0.52
2018-02-13T12:19:01.264Z,0.70
2018-02-13T12:21:27.292Z,1.07
2018-02-13T12:23:53.337Z,1.21
2018-02-13T12:26:19.346Z,1.32
2018-02-13T12:28:45.316Z,1.32
2018-02-13T12:31:11.421Z,1.46
2018-02-13T12:33:37.493Z,1.42
2018-02-13T12:36:03.463Z,1.50
2018-02-13T12:38:29.508Z,1.56
2018-02-13T12:40:55.550Z,1.50
2018-02-13T12:43:21.524Z,1.47
2018-02-13T12:45:47.534Z,1.34
2018-02-13T12:48:13.615Z,1.46
2018-02-13T12:50:39.597Z,1.43
2018-02-13T12:53:05.557Z,1.40
2018-02-13T12:55:31.536Z,1.13
2018-02-13T12:57:57.565Z,1.24
2018-02-13T13:00:23.673Z,1.43
2018-02-13T13:02:49.744Z,1.44
2018-02-13T13:05:15.788Z,1.58
2018-02-13T13:07:41.833Z,1.47
2018-02-13T13:10:07.854Z,1.35
2018-02-13T13:12:33.805Z,1.11
2018-02-13T13:14:59.875Z,1.00
2018-02-13T13:17:25.883Z,1.03
2018-02-13T13:19:51.953Z,1.19
2018-02-13T13:22:17.976Z,1.16
2018-02-13T13:24:44.006Z,1.38
2018-02-13T13:27:10.029Z,1.54
2018-02-13T13:29:36.056Z,1.57
2018-02-13T13:32:02.212Z,1.46
2018-02-13T13:34:28.256Z,1.37
2018-02-13T13:36:54.251Z,1.17
2018-02-13T13:39:20.276Z,1.23
2018-02-13T13:41:46.303Z,1.16
2018-02-13T13:44:12.389Z,1.47
2018-02-13T13:46:38.455Z,1.49
2018-02-13T13:49:04.938Z,1.40
2018-02-13T13:51:30.944Z,1.56
2018-02-13T13:53:56.992Z,1.54
2018-02-13T13:56:23.022Z,1.69
2018-02-13T13:58:49.036Z,1.27
2018-02-13T14:01:15.168Z,1.34
2018-02-13T14:03:41.240Z,1.50
2018-02-13T14:06:07.213Z,1.59
2018-02-13T14:08:33.283Z,1.69
2018-02-13T14:10:59.284Z,1.68
2018-02-13T14:13:25.366Z,1.56
2018-02-13T14:15:51.448Z,1.33
2018-02-13T14:18:17.473Z,1.35
2018-02-13T14:20:43.537Z,1.25
2018-02-13T14:23:09.570Z,1.44
2018-02-13T14:25:35.592Z,1.46
2018-02-13T14:28:01.538Z,1.39
2018-02-13T14:30:27.647Z,1.27
2018-02-13T14:32:53.650Z,2.01
2018-02-13T14:35:19.701Z,2.41
2018-02-13T14:37:45.676Z,1.95
2018-02-13T14:40:11.728Z,1.79
2018-02-13T14:42:37.735Z,1.42
2018-02-13T14:45:03.792Z,1.49
2018-02-13T14:47:29.814Z,1.55
2018-02-13T14:49:55.825Z,1.28
2018-02-13T14:52:21.836Z,1.06
2018-02-13T14:54:47.825Z,1.06
2018-02-13T14:57:13.845Z,1.13
2018-02-13T14:59:39.841Z,1.08
2018-02-13T15:02:05.915Z,1.19
2018-02-13T15:04:31.931Z,1.47
2018-02-13T15:06:58.017Z,1.86
2018-02-13T15:09:24.305Z,2.61
2018-02-13T15:11:50.292Z,2.64
2018-02-13T15:14:16.297Z,2.59
2018-02-13T15:19:46.070Z,2.16
2018-02-13T15:22:12.104Z,2.16
2018-02-13T15:24:38.126Z,1.96
2018-02-13T15:27:04.200Z,2.47
2018-02-13T15:29:30.213Z,3.49
2018-02-13T15:31:56.265Z,4.28
2018-02-13T15:34:22.294Z,4.85
2018-02-13T15:36:48.363Z,4.96
2018-02-13T15:39:14.441Z,5.14
2018-02-13T15:41:40.495Z,5.40
2018-02-13T15:44:06.541Z,5.00
2018-02-13T15:46:33.411Z,4.82
2018-02-13T15:48:59.453Z,4.41
2018-02-13T15:51:25.445Z,3.80
2018-02-13T15:53:51.532Z,3.36
2018-02-13T15:56:17.552Z,2.66
2018-02-13T15:58:43.574Z,2.42
2018-02-13T16:01:09.684Z,2.46
2018-02-13T16:03:35.675Z,2.12
2018-02-13T16:06:01.678Z,2.07
2018-02-13T16:08:27.668Z,1.58
2018-02-13T16:10:53.665Z,1.28
2018-02-13T16:13:19.681Z,1.08
2018-02-13T16:15:45.768Z,1.11
2018-02-13T16:18:11.804Z,0.97
2018-02-13T16:20:37.804Z,0.87
2018-02-13T16:23:03.837Z,0.73
2018-02-13T16:25:29.848Z,0.73
2018-02-13T16:27:55.802Z,0.62
2018-02-13T16:30:22.323Z,0.65
2018-02-13T16:32:48.312Z,0.50
2018-02-13T16:35:14.324Z,0.45
2018-02-13T16:37:40.365Z,0.42
2018-02-13T16:40:06.365Z,0.39
2018-02-13T16:42:32.485Z,0.33
2018-02-13T16:44:58.495Z,0.23
2018-02-13T16:47:24.560Z,0.17
2018-02-13T16:49:50.620Z,0.14
2018-02-13T16:52:16.633Z,0.03
2018-02-13T16:54:42.762Z,0.01
2018-02-13T16:57:08.760Z,-0.01
2018-02-13T16:59:34.932Z,-0.11
2018-02-13T17:02:01.000Z,-0.19
2018-02-13T17:04:26.995Z,-0.26
2018-02-13T17:06:53.063Z,-0.39
2018-02-13T17:09:19.049Z,-0.66
2018-02-13T17:11:45.042Z,-0.73
2018-02-13T17:14:11.045Z,-0.85
2018-02-13T17:16:37.046Z,-0.98
2018-02-13T17:19:03.064Z,-0.93
2018-02-13T17:21:29.125Z,-0.98
2018-02-13T17:23:55.137Z,-0.88
2018-02-13T17:26:21.132Z,-0.83
2018-02-13T17:28:47.145Z,-0.78
2018-02-13T17:31:13.193Z,-0.94
2018-02-13T17:33:39.177Z,-0.99
2018-02-13T17:36:05.310Z,-1.06
2018-02-13T17:38:31.276Z,-0.94
2018-02-13T17:40:57.291Z,-0.95
2018-02-13T17:43:23.304Z,-1.01
2018-02-13T17:45:49.341Z,-1.05
2018-02-13T17:48:15.334Z,-1.17
2018-02-13T17:50:41.391Z,-1.23
2018-02-13T17:53:07.440Z,-1.24
2018-02-13T17:55:33.478Z,-1.24
2018-02-13T17:57:59.507Z,-1.16
2018-02-13T18:00:25.613Z,-1.11
2018-02-13T18:02:51.558Z,-1.16
2018-02-13T18:05:17.537Z,-1.19
2018-02-13T18:07:43.484Z,-1.24
2018-02-13T18:10:09.572Z,-1.22
2018-02-13T18:12:35.560Z,-1.26
2018-02-13T18:15:01.600Z,-1.22
2018-02-13T18:17:27.588Z,-1.31
2018-02-13T18:19:53.513Z,-1.27
2018-02-13T18:22:19.556Z,-1.31
2018-02-13T18:24:45.618Z,-1.32
2018-02-13T18:27:11.681Z,-1.33
2018-02-13T18:29:37.746Z,-1.32
2018-02-13T18:32:03.782Z,-1.38
2018-02-13T18:34:29.882Z,-1.48
2018-02-13T18:36:55.888Z,-1.52
2018-02-13T18:39:21.912Z,-1.61
2018-02-13T18:41:47.976Z,-1.74
2018-02-13T18:44:13.995Z,-1.78
2018-02-13T18:46:40.117Z,-1.81
2018-02-13T18:49:06.124Z,-1.83
2018-02-13T18:51:32.136Z,-1.86
2018-02-13T18:53:58.149Z,-1.83
2018-02-13T18:56:24.180Z,-1.88
2018-02-13T18:58:50.212Z,-1.87
2018-02-13T19:01:16.277Z,-1.92
2018-02-13T19:03:42.285Z,-1.98
2018-02-13T19:06:08.277Z,-2.00
2018-02-13T19:08:34.286Z,-1.99
2018-02-13T19:11:01.037Z,-1.99
2018-02-13T19:13:27.129Z,-1.98
2018-02-13T19:15:53.228Z,-2.00
2018-02-13T19:18:19.234Z,-2.01
2018-02-13T19:20:45.256Z,-2.00
2018-02-13T19:23:11.315Z,-1.92
2018-02-13T19:25:37.292Z,-2.06
2018-02-13T19:28:03.333Z,-2.12
2018-02-13T19:30:29.354Z,-2.22
2018-02-13T19:32:55.357Z,-2.22
2018-02-13T19:35:21.389Z,-2.28
2018-02-13T19:37:47.487Z,-2.32
2018-02-13T19:40:13.466Z,-2.45
2018-02-13T19:42:39.552Z,-2.51
2018-02-13T19:45:05.595Z,-2.55
2018-02-13T19:47:31.610Z,-2.60
2018-02-13T19:49:57.677Z,-2.56
2018-02-13T19:52:23.758Z,-2.67
2018-02-13T19:54:49.801Z,-2.55
2018-02-13T19:57:15.825Z,-2.60
2018-02-13T19:59:41.830Z,-2.45
2018-02-13T20:02:07.855Z,-2.36
2018-02-13T20:04:33.857Z,-2.55
2018-02-13T20:06:59.867Z,-2.58
2018-02-13T20:09:26.097Z,-2.66
2018-02-13T20:11:52.096Z,-2.68
2018-02-13T20:14:18.147Z,-2.84
2018-02-13T20:16:44.158Z,-2.78
2018-02-13T20:19:10.195Z,-2.99
2018-02-13T20:21:36.237Z,-2.98
2018-02-13T20:24:02.262Z,-3.05
2018-02-13T20:26:28.280Z,-3.18
2018-02-13T20:28:55.340Z,-3.42
2018-02-13T20:31:21.365Z,-3.48
2018-02-13T20:33:47.377Z,-3.29
2018-02-13T20:36:13.397Z,-3.27
2018-02-13T20:38:39.446Z,-3.25
2018-02-13T20:41:06.477Z,-3.42
2018-02-13T20:43:32.485Z,-3.44
2018-02-13T20:45:58.479Z,-3.84
2018-02-13T20:48:24.517Z,-3.57
2018-02-13T20:50:51.464Z,-3.63
2018-02-13T20:53:17.528Z,-3.77
2018-02-13T20:55:43.537Z,-3.85
2018-02-13T20:58:09.528Z,-3.98
2018-02-13T21:00:35.565Z,-3.90
2018-02-13T21:03:01.600Z,-3.93
2018-02-13T21:05:27.604Z,-4.08
2018-02-13T21:07:53.594Z,-3.94
2018-02-13T21:10:19.617Z,-4.17
2018-02-13T21:12:45.593Z,-4.30
2018-02-13T21:15:11.549Z,-4.21
2018-02-13T21:17:37.585Z,-4.35
2018-02-13T21:20:03.550Z,-4.23
2018-02-13T21:22:29.626Z,-4.18
2018-02-13T21:24:55.630Z,-4.08
2018-02-13T21:27:21.682Z,-4.09
2018-02-13T21:29:47.714Z,-4.23
2018-02-13T21:32:13.720Z,-4.43
2018-02-13T21:34:39.761Z,-4.53
2018-02-13T21:37:05.780Z,-4.38
2018-02-13T21:39:31.790Z,-4.18
2018-02-13T21:41:57.766Z,-4.47
2018-02-13T21:44:23.787Z,-4.77
2018-02-13T21:46:49.853Z,-4.70
2018-02-13T21:49:15.852Z,-4.53
2018-02-13T21:51:41.894Z,-4.59
2018-02-13T21:54:08.000Z,-4.54
2018-02-13T21:56:34.024Z,-4.58
2018-02-13T21:59:00.076Z,-4.98
2018-02-13T22:01:26.099Z,-4.97
2018-02-13T22:03:52.101Z,-4.99
2018-02-13T22:06:18.159Z,-4.99
2018-02-13T22:08:44.192Z,-4.91
2018-02-13T22:11:10.261Z,-5.11
2018-02-13T22:13:36.304Z,-5.22
2018-02-13T22:16:02.380Z,-5.32
2018-02-13T22:18:28.322Z,-5.31
2018-02-13T22:20:54.337Z,-5.36
2018-02-13T22:23:20.373Z,-5.28
2018-02-13T22:25:46.381Z,-5.35
2018-02-13T22:28:12.432Z,-5.32
2018-02-13T22:30:38.378Z,-5.43
2018-02-13T22:33:04.412Z,-5.30
2018-02-13T22:35:30.425Z,-5.31
2018-02-13T22:37:56.433Z,-5.29
2018-02-13T22:40:22.444Z,-5.08
2018-02-13T22:42:48.449Z,-5.02
2018-02-13T22:45:14.465Z,-5.16
2018-02-13T22:47:40.515Z,-5.30
2018-02-13T22:50:06.884Z,-5.35
2018-02-13T22:52:32.841Z,-5.30
2018-02-13T22:54:58.851Z,-5.22
2018-02-13T22:57:24.923Z,-5.14
2018-02-13T22:59:50.911Z,-5.13
2018-02-13T23:02:16.917Z,-5.15
2018-02-13T23:04:42.925Z,-5.20
2018-02-13T23:07:08.937Z,-5.21
2018-02-13T23:09:34.935Z,-5.22
2018-02-13T23:12:00.964Z,-5.25
2018-02-13T23:14:26.936Z,-5.29
2018-02-13T23:16:52.914Z,-5.32
2018-02-13T23:19:18.961Z,-5.35
2018-02-13T23:21:44.992Z,-5.50
2018-02-13T23:24:11.064Z,-5.44
2018-02-13T23:26:37.060Z,-5.37
2018-02-13T23:29:03.090Z,-5.31
2018-02-13T23:31:29.238Z,-5.29
2018-02-13T23:33:55.246Z,-5.32
2018-02-13T23:36:21.232Z,-5.30
2018-02-13T23:38:47.605Z,-5.34
2018-02-13T23:41:13.570Z,-5.41
2018-02-13T23:43:39.543Z,-5.41
2018-02-13T23:46:05.593Z,-5.48
2018-02-13T23:48:31.564Z,-5.48
2018-02-13T23:50:57.637Z,-5.65
2018-02-13T23:53:23.654Z,-5.64
2018-02-13T23:55:49.653Z,-5.59
2018-02-13T23:58:15.673Z,-5.63
